Carmel Valley, California
Current Conditions -  °F | °C
As of 9:54 AM on Friday 28 Nov 2014 (Local Time) from KMRY Reporting Station
Clear Clear  
Wind Chill: 56°   Ceiling: Unl
Heat Index: 56°   Visibility: 10mi
Dew Point: 42°   Wind: 0mph
Humidity: 60%   Direction: NA
Pressure: 30.04"   Gusts: NA
Location:  36.48°N, 121.73°W
Report Text: KMRY 281754Z 00000KT 10SM CLR 13/06 A3004 RMK AO2 SLP183 T01330056 10133 20039 50013
Loading
Personal Weather Stations






























Interactive Weather Map New forecast layout! Learn more

10-Day Weather Forecast

Advertisements
Track Severe Weather on mobile